Time;durP1;ratioP1;P1;durP2;ratioP2;P2;SDS_P1;SDS_P2;PMS_P1;PMS_P2;Temp;Humidity;BMP_temperature;BMP_pressure;BME280_temperature;BME280_humidity;BME280_pressure;Samples;Min_cycle;Max_cycle;Signal;HPM_P1;HPM_P2
2023/12/29 00:01:30;;;;;;;95.30;53.80;;;;;;;1.72;75.28;100732.31;123092;1102;104313;-75
2023/12/29 00:04:01;;;;;;;101.87;56.30;;;;;;;1.71;75.67;100724.44;123154;1102;104427;-75
2023/12/29 00:06:32;;;;;;;100.07;54.03;;;;;;;1.72;75.37;100729.73;123181;1102;104321;-75
2023/12/29 00:09:04;;;;;;;100.67;54.93;;;;;;;1.73;75.96;100728.03;123263;1102;104278;-75
2023/12/29 00:11:35;;;;;;;98.03;56.13;;;;;;;1.74;75.68;100729.84;123165;1102;104341;-75
2023/12/29 00:14:07;;;;;;;97.17;54.90;;;;;;;1.74;75.71;100738.49;123145;1102;104365;-75
2023/12/29 00:16:38;;;;;;;103.50;57.50;;;;;;;1.72;76.03;100734.91;123192;1102;117861;-76
2023/12/29 00:19:09;;;;;;;93.67;55.07;;;;;;;1.70;75.56;100738.15;123041;1102;104393;-75
2023/12/29 00:21:40;;;;;;;104.43;55.40;;;;;;;1.57;76.02;100737.26;123038;1102;104258;-76
2023/12/29 00:24:12;;;;;;;96.23;52.87;;;;;;;1.50;75.98;100734.09;123092;1102;104281;-75
2023/12/29 00:26:43;;;;;;;99.47;55.57;;;;;;;1.45;76.00;100731.16;123140;1102;104331;-75
2023/12/29 00:29:15;;;;;;;100.73;54.10;;;;;;;1.46;75.78;100714.84;123200;1102;104329;-75
2023/12/29 00:31:46;;;;;;;92.20;52.07;;;;;;;1.47;76.12;100723.52;123190;1102;104272;-74
2023/12/29 00:34:17;;;;;;;98.77;52.60;;;;;;;1.44;75.67;100712.13;123097;1102;104333;-75
2023/12/29 00:36:49;;;;;;;93.83;52.53;;;;;;;1.42;75.87;100715.41;123176;1102;104281;-75
2023/12/29 00:39:28;;;;;;;97.03;52.13;;;;;;;1.38;75.66;100715.95;123026;1102;104331;-75
2023/12/29 00:41:59;;;;;;;93.30;50.17;;;;;;;1.30;76.09;100720.54;122890;1102;104363;-75
2023/12/29 00:44:30;;;;;;;87.23;49.57;;;;;;;1.19;76.08;100731.76;123117;1102;104367;-75
2023/12/29 00:47:02;;;;;;;89.77;48.90;;;;;;;1.07;75.90;100730.00;123093;1102;104284;-75
2023/12/29 00:49:33;;;;;;;92.73;49.90;;;;;;;1.02;75.72;100710.67;123123;1102;104252;-75
2023/12/29 00:52:05;;;;;;;88.80;48.50;;;;;;;1.04;76.01;100716.88;123057;1102;104286;-75
2023/12/29 00:54:36;;;;;;;92.03;50.07;;;;;;;1.07;76.24;100692.94;123250;1102;104431;-75
2023/12/29 00:57:08;;;;;;;90.67;49.77;;;;;;;1.10;75.98;100700.03;123094;1102;104374;-75
2023/12/29 00:59:43;;;;;;;81.80;47.30;;;;;;;1.07;75.98;100706.75;123117;1102;104322;-75
2023/12/29 01:02:15;;;;;;;86.70;46.37;;;;;;;1.00;76.33;100712.24;123165;1102;104335;-75
2023/12/29 01:04:46;;;;;;;88.07;44.77;;;;;;;0.89;75.85;100715.69;123148;1102;104357;-75
2023/12/29 01:07:18;;;;;;;84.00;46.20;;;;;;;0.78;76.10;100713.93;123151;1102;104300;-75
2023/12/29 01:09:49;;;;;;;88.97;45.03;;;;;;;0.68;76.05;100709.73;123103;1102;104258;-75
2023/12/29 01:12:20;;;;;;;91.00;45.50;;;;;;;0.58;76.07;100708.13;123104;1102;104292;-75
2023/12/29 01:14:51;;;;;;;94.23;45.50;;;;;;;0.46;76.33;100708.04;123230;1102;104232;-76
2023/12/29 01:17:23;;;;;;;89.60;45.40;;;;;;;0.35;76.16;100703.72;123054;1102;104206;-76
2023/12/29 01:19:54;;;;;;;86.27;44.27;;;;;;;0.34;76.05;100696.73;123084;1102;104290;-75
2023/12/29 01:22:27;;;;;;;97.05;47.15;;;;;;;0.35;76.16;100695.97;123023;1103;104376;-76
2023/12/29 01:24:59;;;;;;;91.40;44.50;;;;;;;0.25;76.26;100696.93;123157;1102;104263;-75
2023/12/29 01:27:31;;;;;;;94.45;42.40;;;;;;;0.12;76.34;100704.45;122751;1102;104283;-76
2023/12/29 01:30:03;;;;;;;95.53;43.77;;;;;;;-0.01;76.45;100693.14;123176;1102;104187;-76
2023/12/29 01:32:37;;;;;;;97.43;47.90;;;;;;;-0.04;76.10;100697.16;123069;1102;104341;-75
2023/12/29 01:35:09;;;;;;;87.03;43.60;;;;;;;-0.08;76.42;100690.86;123128;1102;104274;-75
2023/12/29 01:37:40;;;;;;;90.80;41.10;;;;;;;-0.15;75.70;100685.97;123165;1102;104278;-75
2023/12/29 01:40:13;;;;;;;88.77;41.07;;;;;;;-0.17;76.57;100695.27;123163;1102;104354;-76
2023/12/29 01:42:45;;;;;;;86.93;40.03;;;;;;;-0.20;75.83;100695.02;122980;1102;104319;-75
2023/12/29 01:45:23;;;;;;;85.53;41.27;;;;;;;-0.25;76.69;100694.64;123079;1102;104389;-75
2023/12/29 01:47:55;;;;;;;86.03;40.80;;;;;;;-0.24;76.71;100692.95;123496;1102;104195;-75
2023/12/29 01:50:26;;;;;;;95.83;42.87;;;;;;;-0.20;76.46;100684.70;123270;1102;104255;-75
2023/12/29 01:52:59;;;;;;;94.97;44.30;;;;;;;-0.16;76.51;100679.00;123141;1102;104746;-75
2023/12/29 01:55:32;;;;;;;97.40;44.87;;;;;;;-0.08;77.13;100674.46;123164;1102;104351;-74
2023/12/29 01:58:04;;;;;;;95.60;44.07;;;;;;;0.00;76.96;100678.59;123174;1102;104275;-75
2023/12/29 02:00:36;;;;;;;82.83;38.03;;;;;;;0.04;76.75;100679.72;122926;1102;104248;-75
2023/12/29 02:03:08;;;;;;;99.33;41.07;;;;;;;-0.02;76.61;100672.38;123170;1102;104287;-75
2023/12/29 02:05:41;;;;;;;84.47;41.17;;;;;;;-0.01;76.61;100667.34;123013;1102;104310;-75
2023/12/29 02:08:14;;;;;;;84.10;42.20;;;;;;;0.06;76.71;100673.88;122960;1102;104262;-76
2023/12/29 02:10:45;;;;;;;113.77;43.10;;;;;;;0.11;76.99;100677.76;123172;1102;104606;-76
2023/12/29 02:13:17;;;;;;;96.67;40.83;;;;;;;0.12;77.03;100670.91;123137;1102;104322;-76
2023/12/29 02:15:49;;;;;;;93.90;36.77;;;;;;;0.05;76.43;100674.69;123218;1102;104359;-76
2023/12/29 02:18:22;;;;;;;106.40;39.83;;;;;;;-0.07;76.78;100677.16;123089;1102;104255;-76
2023/12/29 02:20:54;;;;;;;82.93;39.90;;;;;;;-0.17;77.55;100678.88;123059;1102;104351;-75
2023/12/29 02:23:25;;;;;;;105.27;39.97;;;;;;;-0.27;77.02;100678.13;123154;1102;104361;-76
2023/12/29 02:26:02;;;;;;;99.50;41.27;;;;;;;-0.28;77.09;100672.84;123098;1102;104354;-75
2023/12/29 02:28:38;;;;;;;89.10;37.77;;;;;;;-0.27;76.51;100662.65;123111;1102;104300;-75
2023/12/29 02:31:15;;;;;;;87.23;36.93;;;;;;;-0.30;77.38;100666.67;123159;1102;104277;-76
2023/12/29 02:33:48;;;;;;;81.90;37.13;;;;;;;-0.30;77.08;100658.93;123143;1102;104261;-76
2023/12/29 02:36:22;;;;;;;90.45;40.28;;;;;;;-0.26;77.71;100656.73;123395;1101;104399;-76
2023/12/29 02:38:54;;;;;;;73.07;35.25;;;;;;;-0.21;78.23;100662.26;123228;1102;104254;-76
2023/12/29 02:41:26;;;;;;;77.47;34.90;;;;;;;-0.29;78.28;100674.53;123264;1102;104322;-76
2023/12/29 02:43:59;;;;;;;77.03;36.80;;;;;;;-0.38;77.28;100669.51;123044;1102;104303;-77
2023/12/29 02:46:30;;;;;;;78.53;35.67;;;;;;;-0.45;77.37;100677.53;123097;1102;104341;-77
2023/12/29 02:49:01;;;;;;;87.20;37.30;;;;;;;-0.54;77.28;100676.78;123066;1101;104322;-77
2023/12/29 02:51:33;;;;;;;84.10;37.50;;;;;;;-0.61;77.97;100669.30;123095;1102;104273;-76
2023/12/29 02:54:05;;;;;;;87.77;37.13;;;;;;;-0.62;78.22;100673.56;123126;1102;104366;-75
2023/12/29 02:56:37;;;;;;;83.17;36.57;;;;;;;-0.62;78.56;100680.41;123244;1102;104706;-76
2023/12/29 02:59:08;;;;;;;93.60;35.90;;;;;;;-0.64;77.48;100676.78;123161;1102;104287;-76
2023/12/29 03:01:39;;;;;;;88.43;37.60;;;;;;;-0.66;77.63;100675.76;123126;1102;104402;-76
2023/12/29 03:04:10;;;;;;;80.87;34.23;;;;;;;-0.71;78.04;100672.80;123110;1102;104274;-76
2023/12/29 03:06:43;;;;;;;84.70;36.97;;;;;;;-0.69;77.73;100671.23;123233;1101;104325;-76
2023/12/29 03:09:14;;;;;;;78.83;36.93;;;;;;;-0.63;78.23;100673.44;123190;1102;104287;-77
2023/12/29 03:11:45;;;;;;;72.67;34.03;;;;;;;-0.61;79.03;100674.45;123133;1102;104319;-77
2023/12/29 03:14:18;;;;;;;87.03;34.53;;;;;;;-0.65;78.45;100672.42;122885;1101;104417;-76
2023/12/29 03:16:50;;;;;;;69.45;33.80;;;;;;;-0.68;77.69;100673.05;123163;1102;104270;-75
2023/12/29 03:19:21;;;;;;;70.50;34.67;;;;;;;-0.66;78.08;100665.45;123200;1102;104322;-76
2023/12/29 03:21:54;;;;;;;75.80;33.93;;;;;;;-0.58;78.59;100664.40;123190;1102;104275;-75
2023/12/29 03:24:25;;;;;;;76.53;35.20;;;;;;;-0.57;78.18;100653.33;123205;1102;104319;-77
2023/12/29 03:26:56;;;;;;;80.10;35.05;;;;;;;-0.50;78.90;100658.19;123218;1102;104405;-77
2023/12/29 03:29:27;;;;;;;82.97;34.53;;;;;;;-0.47;78.71;100650.70;123099;1101;104351;-76
2023/12/29 03:31:59;;;;;;;73.80;34.80;;;;;;;-0.42;79.07;100645.92;123158;1102;104280;-76
2023/12/29 03:34:30;;;;;;;73.73;36.70;;;;;;;-0.35;78.61;100650.82;122971;1102;104380;-76
2023/12/29 03:37:01;;;;;;;77.30;34.40;;;;;;;-0.35;78.82;100662.82;123160;1102;104284;-76
2023/12/29 03:39:35;;;;;;;72.30;34.53;;;;;;;-0.42;78.37;100670.05;123141;1102;104393;-76
2023/12/29 03:42:07;;;;;;;78.02;35.85;;;;;;;-0.50;78.99;100683.97;123228;1102;104251;-76
2023/12/29 03:44:38;;;;;;;62.97;32.63;;;;;;;-0.55;78.55;100683.63;123140;1102;104233;-76
2023/12/29 03:47:11;;;;;;;68.40;31.43;;;;;;;-0.60;78.51;100674.58;122871;1102;104332;-76
2023/12/29 03:49:42;;;;;;;96.63;35.77;;;;;;;-0.66;78.84;100680.91;122690;1103;104421;-76
2023/12/29 03:52:13;;;;;;;71.30;33.47;;;;;;;-0.71;78.57;100689.95;123026;1102;104388;-76
2023/12/29 03:54:45;;;;;;;82.07;35.87;;;;;;;-0.71;79.19;100682.22;123080;1102;104659;-76
2023/12/29 03:57:17;;;;;;;75.40;33.40;;;;;;;-0.71;78.88;100677.06;123113;1102;104248;-77
2023/12/29 03:59:48;;;;;;;82.23;35.93;;;;;;;-0.77;79.35;100675.75;123101;1102;104348;-76
2023/12/29 04:02:20;;;;;;;90.13;36.87;;;;;;;-0.78;78.31;100667.90;123222;1102;104701;-77
2023/12/29 04:04:51;;;;;;;84.80;36.50;;;;;;;-0.80;78.67;100667.77;123151;1102;104309;-76
2023/12/29 04:07:23;;;;;;;78.67;32.67;;;;;;;-0.91;78.93;100668.55;123151;1102;104425;-76
2023/12/29 04:09:54;;;;;;;77.20;32.97;;;;;;;-0.97;78.77;100671.50;123105;1101;104328;-76
2023/12/29 04:12:25;;;;;;;76.20;31.57;;;;;;;-0.99;79.39;100661.87;123128;1102;104364;-76
2023/12/29 04:14:56;;;;;;;93.90;34.03;;;;;;;-1.02;79.62;100659.92;122787;1102;104344;-76
2023/12/29 04:17:28;;;;;;;92.17;32.67;;;;;;;-1.02;79.56;100654.77;123298;1102;104245;-76
2023/12/29 04:19:59;;;;;;;76.00;30.75;;;;;;;-0.97;79.67;100663.78;123067;1101;104323;-76
2023/12/29 04:22:31;;;;;;;78.43;30.00;;;;;;;-1.00;79.48;100649.75;123319;1102;104654;-76
2023/12/29 04:25:02;;;;;;;69.13;29.17;;;;;;;-1.02;79.30;100657.34;123264;1102;104725;-76
2023/12/29 04:27:33;;;;;;;74.57;30.97;;;;;;;-1.02;79.98;100659.03;123151;1102;104219;-76
2023/12/29 04:30:05;;;;;;;63.53;26.80;;;;;;;-1.01;79.71;100655.66;123085;1102;104374;-76
2023/12/29 04:32:37;;;;;;;64.67;28.03;;;;;;;-1.01;79.77;100650.51;123142;1102;104249;-76
2023/12/29 04:35:12;;;;;;;87.07;30.60;;;;;;;-1.05;80.49;100659.66;123221;1102;104242;-76
2023/12/29 04:37:45;;;;;;;83.75;29.15;;;;;;;-1.10;79.14;100661.84;123075;1102;104271;-76
2023/12/29 04:40:18;;;;;;;58.90;28.73;;;;;;;-1.10;79.97;100663.53;123336;1101;104271;-76
2023/12/29 04:42:49;;;;;;;85.50;31.90;;;;;;;-1.12;79.83;100665.98;122887;1103;104357;-76
2023/12/29 04:45:20;;;;;;;64.23;28.67;;;;;;;-1.14;80.61;100674.34;123220;1102;104341;-76
2023/12/29 04:47:52;;;;;;;80.20;30.30;;;;;;;-1.11;80.66;100675.52;123211;1102;104268;-76
2023/12/29 04:50:23;;;;;;;80.73;31.33;;;;;;;-1.08;80.17;100677.43;123116;1102;104243;-76
2023/12/29 04:52:55;;;;;;;70.97;30.40;;;;;;;-1.04;80.79;100686.31;123130;1102;104364;-76
2023/12/29 04:55:26;;;;;;;66.73;29.23;;;;;;;-1.02;81.08;100687.36;123241;1102;104347;-77
2023/12/29 04:57:57;;;;;;;69.20;28.17;;;;;;;-1.02;80.85;100687.36;123148;1102;104347;-77
2023/12/29 05:00:29;;;;;;;56.83;27.50;;;;;;;-1.01;81.02;100689.15;123136;1102;104280;-76
2023/12/29 05:03:00;;;;;;;78.20;28.47;;;;;;;-0.97;80.67;100693.80;123210;1102;104272;-75
2023/12/29 05:05:31;;;;;;;71.03;29.80;;;;;;;-0.97;80.36;100694.69;123300;1102;104249;-75
2023/12/29 05:08:03;;;;;;;63.75;29.40;;;;;;;-0.93;80.50;100685.56;123280;1102;104527;-76
2023/12/29 05:10:34;;;;;;;60.80;29.07;;;;;;;-0.93;81.19;100693.30;123128;1102;104389;-76
2023/12/29 05:13:06;;;;;;;68.25;28.85;;;;;;;-0.97;81.28;100698.95;123247;1102;104274;-76
2023/12/29 05:15:37;;;;;;;53.37;25.23;;;;;;;-1.01;81.95;100699.45;123019;1102;104293;-76
2023/12/29 05:18:09;;;;;;;75.63;28.30;;;;;;;-1.05;81.41;100694.83;123202;1102;104321;-76
2023/12/29 05:20:40;;;;;;;75.15;28.85;;;;;;;-1.00;81.33;100693.54;123416;1102;104360;-76
2023/12/29 05:23:11;;;;;;;90.97;27.93;;;;;;;-0.94;81.52;100702.67;123159;1102;104302;-76
2023/12/29 05:25:43;;;;;;;61.47;24.57;;;;;;;-0.95;80.54;100697.39;123309;1102;104271;-76
2023/12/29 05:28:14;;;;;;;61.97;27.80;;;;;;;-0.94;80.63;100699.21;123180;1102;104377;-76
2023/12/29 05:30:46;;;;;;;70.17;25.67;;;;;;;-0.91;80.96;100699.47;123219;1102;104354;-76
2023/12/29 05:33:17;;;;;;;89.70;27.40;;;;;;;-0.91;80.93;100697.78;123207;1102;104737;-75
2023/12/29 05:35:49;;;;;;;72.27;26.80;;;;;;;-0.92;81.21;100701.16;123370;1102;104747;-77
2023/12/29 05:38:20;;;;;;;59.07;25.73;;;;;;;-0.93;81.68;100704.49;123234;1102;104248;-77
2023/12/29 05:40:52;;;;;;;70.10;27.40;;;;;;;-0.96;81.15;100709.39;123316;1102;104300;-77
2023/12/29 05:43:23;;;;;;;68.13;28.30;;;;;;;-1.00;81.04;100714.14;123042;1102;104475;-77
2023/12/29 05:45:55;;;;;;;71.77;30.20;;;;;;;-1.01;81.24;100722.63;123308;1102;104412;-77
2023/12/29 05:48:26;;;;;;;89.83;30.63;;;;;;;-1.05;81.69;100726.63;123282;1102;104241;-78
2023/12/29 05:50:57;;;;;;;82.73;31.67;;;;;;;-1.06;81.80;100726.50;123683;1102;104315;-78
2023/12/29 05:53:29;;;;;;;63.53;30.03;;;;;;;-1.10;81.05;100735.65;123493;1102;104759;-78
2023/12/29 05:56:00;;;;;;;75.57;33.23;;;;;;;-1.07;82.20;100740.17;123777;1102;104366;-77
2023/12/29 05:58:31;;;;;;;63.67;32.60;;;;;;;-1.04;82.11;100737.83;123817;1102;104383;-75
2023/12/29 06:01:03;;;;;;;62.07;30.37;;;;;;;-1.05;82.42;100748.92;123561;1102;104320;-74
2023/12/29 06:03:34;;;;;;;70.60;30.07;;;;;;;-1.08;81.94;100744.40;123696;1102;104345;-78
2023/12/29 06:06:06;;;;;;;63.47;28.07;;;;;;;-1.10;82.20;100744.27;123641;1102;104648;-77
2023/12/29 06:08:38;;;;;;;57.60;29.57;;;;;;;-1.15;82.50;100749.81;123498;1101;104356;-77
2023/12/29 06:11:09;;;;;;;75.57;29.30;;;;;;;-1.20;82.50;100757.14;123424;1102;104200;-78
2023/12/29 06:13:41;;;;;;;69.70;28.47;;;;;;;-1.21;81.44;100752.75;123410;1102;108194;-76
2023/12/29 06:16:18;;;;;;;61.90;27.20;;;;;;;-1.22;82.06;100748.36;123468;1102;104284;-75
2023/12/29 06:18:51;;;;;;;59.90;27.60;;;;;;;-1.23;81.71;100750.80;123827;1102;104718;-74
2023/12/29 06:21:23;;;;;;;53.95;26.62;;;;;;;-1.21;81.81;100754.44;123784;1102;104373;-74
2023/12/29 06:23:55;;;;;;;57.57;25.37;;;;;;;-1.23;81.41;100751.72;123838;1102;119028;-77
2023/12/29 06:26:26;;;;;;;51.23;25.33;;;;;;;-1.24;81.42;100743.87;123706;1102;104377;-77
2023/12/29 06:28:58;;;;;;;51.23;25.83;;;;;;;-1.21;81.34;100738.98;123941;1102;104159;-79
2023/12/29 06:31:30;;;;;;;48.33;24.60;;;;;;;-1.19;83.05;100753.77;115517;1100;10001670;-77
2023/12/29 06:34:03;;;;;;;46.10;24.43;;;;;;;-1.21;82.86;100747.60;123960;1102;104303;-75
2023/12/29 06:36:34;;;;;;;54.23;25.63;;;;;;;-1.19;82.73;100740.00;124245;1102;104705;-76
2023/12/29 06:39:06;;;;;;;46.77;24.47;;;;;;;-1.09;83.43;100740.94;124080;1102;104232;-76
2023/12/29 06:41:38;;;;;;;48.83;25.33;;;;;;;-1.01;82.26;100743.23;124098;1102;104459;-76
2023/12/29 06:44:10;;;;;;;54.17;25.97;;;;;;;-0.93;82.24;100747.39;124167;1101;104173;-76
2023/12/29 06:46:42;;;;;;;46.63;23.90;;;;;;;-0.92;82.08;100759.48;124211;1102;104284;-77
2023/12/29 06:49:13;;;;;;;59.23;27.60;;;;;;;-0.95;81.92;100751.49;124110;1102;104245;-76
2023/12/29 06:51:45;;;;;;;62.47;27.73;;;;;;;-0.92;82.46;100744.95;115604;1100;10002026;-75
2023/12/29 06:54:17;;;;;;;57.43;29.90;;;;;;;-0.85;82.75;100746.36;123975;1099;104382;-73
2023/12/29 06:56:48;;;;;;;59.93;30.33;;;;;;;-0.73;82.85;100751.67;124394;1099;104255;-76
2023/12/29 06:59:20;;;;;;;63.07;29.67;;;;;;;-0.65;82.41;100747.16;124413;1099;104617;-76
2023/12/29 07:01:54;;;;;;;61.70;29.93;;;;;;;-0.62;83.20;100744.84;124375;1099;104242;-78
2023/12/29 07:04:26;;;;;;;67.57;29.23;;;;;;;-0.63;83.03;100741.34;124361;1099;104206;-75
2023/12/29 07:06:59;;;;;;;56.83;26.93;;;;;;;-0.64;82.93;100751.52;124232;1099;102149;-76
2023/12/29 07:09:32;;;;;;;60.35;30.20;;;;;;;-0.63;82.96;100755.91;124151;1099;104223;-76
2023/12/29 07:12:04;;;;;;;65.50;31.43;;;;;;;-0.59;82.98;100758.87;124049;1098;104246;-76
2023/12/29 07:14:36;;;;;;;62.53;29.37;;;;;;;-0.52;83.35;100756.82;124334;1099;104680;-76
2023/12/29 07:17:08;;;;;;;69.80;28.90;;;;;;;-0.56;83.47;100764.30;124560;1099;102926;-76
2023/12/29 07:19:39;;;;;;;55.43;26.60;;;;;;;-0.59;83.03;100760.56;124464;1099;104314;-76
2023/12/29 07:22:11;;;;;;;59.17;27.73;;;;;;;-0.62;82.49;100762.89;124384;1098;104226;-77
2023/12/29 07:24:43;;;;;;;49.27;25.23;;;;;;;-0.61;82.80;100764.67;124116;1102;104012;-77
2023/12/29 07:27:15;;;;;;;52.70;27.93;;;;;;;-0.59;83.44;100763.14;124081;1099;103752;-75
2023/12/29 07:29:48;;;;;;;57.83;28.43;;;;;;;-0.59;82.31;100770.88;123531;1101;103843;-74
2023/12/29 07:32:23;;;;;;;56.10;27.70;;;;;;;-0.62;82.49;100766.36;123638;1099;103062;-76
2023/12/29 07:34:58;;;;;;;63.10;30.73;;;;;;;-0.61;83.37;100772.40;124071;1099;103062;-77
2023/12/29 07:37:33;;;;;;;60.17;28.90;;;;;;;-0.60;82.49;100775.11;124395;1098;102772;-75
2023/12/29 07:40:07;;;;;;;67.33;33.03;;;;;;;-0.55;82.07;100770.34;124383;1099;104165;-75
2023/12/29 07:42:46;;;;;;;78.47;35.03;;;;;;;-0.41;82.45;100771.50;124541;1099;104226;-74
2023/12/29 07:45:18;;;;;;;60.97;32.20;;;;;;;-0.27;83.15;100770.97;124115;1099;102779;-76
2023/12/29 07:47:49;;;;;;;58.80;30.53;;;;;;;-0.13;82.82;100773.80;124368;1099;101914;-75
2023/12/29 07:50:21;;;;;;;62.23;31.93;;;;;;;-0.04;83.23;100770.29;124459;1099;104185;-74
2023/12/29 07:52:54;;;;;;;61.67;30.63;;;;;;;0.06;83.34;100776.20;123925;1099;104242;-73
2023/12/29 07:55:28;;;;;;;61.23;29.43;;;;;;;0.09;82.71;100785.09;124023;1099;104210;-76
2023/12/29 07:58:00;;;;;;;59.60;29.20;;;;;;;0.08;82.99;100778.15;124127;1099;102879;-74
2023/12/29 08:00:33;;;;;;;63.90;32.97;;;;;;;0.09;83.10;100777.34;124124;1099;104284;-74
2023/12/29 08:03:07;;;;;;;62.03;31.20;;;;;;;0.17;83.08;100772.81;124206;1099;104274;-75
2023/12/29 08:05:39;;;;;;;55.20;29.12;;;;;;;0.21;82.30;100771.41;124498;1099;104181;-75
2023/12/29 08:08:16;;;;;;;57.53;30.43;;;;;;;0.16;82.85;100781.36;124539;1099;104172;-74
2023/12/29 08:10:48;;;;;;;62.20;30.03;;;;;;;0.04;82.62;100782.93;124158;1099;104236;-76
2023/12/29 08:13:20;;;;;;;65.33;34.03;;;;;;;-0.05;82.37;100790.80;123957;1099;104347;-76
2023/12/29 08:15:52;;;;;;;65.63;31.93;;;;;;;-0.13;82.62;100789.27;123859;1102;103111;-76
2023/12/29 08:18:24;;;;;;;67.20;32.47;;;;;;;-0.22;82.20;100780.01;124028;1102;104255;-76
2023/12/29 08:20:56;;;;;;;60.67;30.10;;;;;;;-0.26;82.52;100787.36;123959;1099;102824;-75
2023/12/29 08:23:28;;;;;;;56.87;28.93;;;;;;;-0.28;82.69;100789.81;123941;1099;103452;-76
2023/12/29 08:26:00;;;;;;;54.47;29.70;;;;;;;-0.24;82.01;100796.13;124005;1099;103935;-77
2023/12/29 08:28:32;;;;;;;53.70;28.73;;;;;;;-0.23;82.60;100795.36;124643;1099;104645;-78
2023/12/29 08:31:03;;;;;;;60.63;27.83;;;;;;;-0.25;82.72;100789.14;123877;1099;104176;-75
2023/12/29 08:33:34;;;;;;;58.13;28.63;;;;;;;-0.26;82.61;100783.09;124274;1099;104227;-75
2023/12/29 08:36:10;;;;;;;65.73;30.93;;;;;;;-0.23;82.52;100782.46;124096;1099;102641;-76
2023/12/29 08:38:41;;;;;;;63.33;30.07;;;;;;;-0.22;82.98;100776.51;124089;1099;104229;-77
2023/12/29 08:41:16;;;;;;;60.73;30.10;;;;;;;-0.18;83.02;100778.58;124240;1099;104183;-76
2023/12/29 08:43:53;;;;;;;69.27;34.47;;;;;;;-0.16;83.00;100776.13;124224;1099;104686;-76
2023/12/29 08:46:30;;;;;;;68.83;34.53;;;;;;;-0.11;83.07;100774.81;125610;1099;102687;-76
2023/12/29 08:49:02;;;;;;;67.30;32.63;;;;;;;-0.04;83.00;100772.87;125292;1099;102694;-76
2023/12/29 08:51:42;;;;;;;70.60;34.77;;;;;;;0.04;83.21;100767.45;124569;1099;102722;-76
2023/12/29 08:54:19;;;;;;;68.67;32.40;;;;;;;0.07;82.80;100771.17;125402;1098;102615;-75
2023/12/29 08:56:52;;;;;;;71.20;35.63;;;;;;;0.19;82.94;100771.28;124732;1099;103413;-76
2023/12/29 08:59:27;;;;;;;72.43;36.70;;;;;;;0.34;83.19;100766.44;124907;1098;102412;-77
2023/12/29 09:02:00;;;;;;;77.77;36.13;;;;;;;0.51;83.47;100767.80;124879;1098;102712;-77
2023/12/29 09:04:33;;;;;;;77.83;37.83;;;;;;;0.67;83.37;100770.83;124818;1099;103352;-76
2023/12/29 09:07:10;;;;;;;73.80;38.20;;;;;;;0.78;83.31;100773.34;125298;1099;102918;-76
2023/12/29 09:09:42;;;;;;;79.03;38.13;;;;;;;0.87;83.36;100767.25;124803;1099;102854;-77
2023/12/29 09:12:14;;;;;;;74.87;36.17;;;;;;;0.92;82.97;100762.44;124874;1099;103174;-76
2023/12/29 09:14:52;;;;;;;72.27;33.93;;;;;;;0.94;83.21;100770.31;125398;1098;104988;-77
2023/12/29 09:17:22;;;;;;;;;;;;;;;1.01;83.71;100760.58;124795;1099;109151;-77
2023/12/29 09:19:54;;;;;;;70.30;35.30;;;;;;;1.17;83.65;100759.14;124976;1099;102529;-76
2023/12/29 09:22:26;;;;;;;72.30;34.87;;;;;;;1.31;83.64;100757.62;125063;1099;102702;-76
2023/12/29 09:24:59;;;;;;;65.33;32.97;;;;;;;1.44;83.24;100748.34;124454;1099;102721;-76
2023/12/29 09:27:34;;;;;;;58.30;30.67;;;;;;;1.54;83.24;100746.45;124162;1102;105821;-78
2023/12/29 09:30:10;;;;;;;63.60;32.03;;;;;;;1.53;82.92;100745.56;124677;1099;104076;-76
2023/12/29 09:32:44;;;;;;;;;;;;;;;1.52;82.94;100735.09;124126;1099;104169;-76
2023/12/29 09:35:24;;;;;;;60.73;30.87;;;;;;;1.52;82.44;100737.69;124656;1099;104271;-76
2023/12/29 09:38:15;;;;;;;67.07;32.23;;;;;;;1.62;82.76;100729.81;124174;1099;102802;-76
2023/12/29 09:41:06;;;;;;;59.30;29.73;;;;;;;1.80;83.09;100725.13;124189;1099;103636;-77
2023/12/29 09:43:49;;;;;;;60.87;31.23;;;;;;;1.92;82.80;100725.14;124286;1099;102795;-77
2023/12/29 09:46:28;;;;;;;58.87;29.80;;;;;;;2.00;83.26;100726.60;124215;1099;102868;-75
2023/12/29 09:49:04;;;;;;;56.67;28.20;;;;;;;2.04;82.79;100720.88;124636;1098;103016;-76
2023/12/29 09:51:35;;;;;;;58.10;28.00;;;;;;;2.11;82.48;100714.45;124575;1098;104235;-74
2023/12/29 09:54:10;;;;;;;60.37;28.80;;;;;;;2.18;83.17;100700.25;124274;1099;104383;-74
2023/12/29 09:56:41;;;;;;;57.90;29.73;;;;;;;2.24;83.64;100698.10;124093;1099;104268;-74
2023/12/29 09:59:20;;;;;;;54.13;28.47;;;;;;;2.32;83.25;100702.13;124060;1099;102818;-76
2023/12/29 10:01:55;;;;;;;59.73;29.83;;;;;;;2.38;83.83;100699.98;124064;1099;104293;-74
2023/12/29 10:04:26;;;;;;;58.73;29.67;;;;;;;2.44;83.90;100708.19;123835;1102;104261;-75
2023/12/29 10:07:06;;;;;;;57.87;30.30;;;;;;;2.50;83.74;100702.56;124264;1099;103417;-74
2023/12/29 10:09:40;;;;;;;56.67;28.43;;;;;;;2.58;84.06;100690.16;124351;1099;104245;-75
2023/12/29 10:12:14;;;;;;;54.83;29.97;;;;;;;2.67;84.03;100701.16;125090;1098;103334;-75
2023/12/29 10:14:57;;;;;;;55.28;29.57;;;;;;;2.75;84.28;100699.11;125163;1098;103140;-75
2023/12/29 10:17:39;;;;;;;53.85;30.62;;;;;;;2.86;84.16;100708.53;124691;1099;102421;-76
2023/12/29 10:20:25;;;;;;;59.97;31.10;;;;;;;2.95;84.05;100701.39;124750;1098;102715;-75
2023/12/29 10:23:08;;;;;;;62.70;32.43;;;;;;;3.05;83.64;100696.06;124437;1099;102729;-75
2023/12/29 10:25:40;;;;;;;60.77;32.03;;;;;;;3.20;83.87;100693.60;124607;1099;103323;-74
2023/12/29 10:28:17;;;;;;;67.00;36.20;;;;;;;3.33;84.05;100689.25;125034;1099;102654;-75
2023/12/29 10:30:50;;;;;;;66.83;36.90;;;;;;;3.43;84.11;100691.69;125210;1099;102796;-75
2023/12/29 10:33:29;;;;;;;68.93;37.23;;;;;;;3.54;84.23;100690.70;124623;1099;102797;-74
2023/12/29 10:36:03;;;;;;;63.73;35.67;;;;;;;3.67;84.14;100688.92;125178;1098;102751;-74
2023/12/29 10:38:42;;;;;;;67.17;36.43;;;;;;;3.80;84.50;100691.50;124527;1098;102926;-74
2023/12/29 10:41:21;;;;;;;66.10;37.40;;;;;;;3.93;84.25;100686.33;124559;1099;102846;-75
2023/12/29 10:44:11;;;;;;;70.40;38.13;;;;;;;4.08;84.14;100688.12;124616;1099;102917;-75
2023/12/29 10:46:43;;;;;;;66.33;36.73;;;;;;;4.20;84.42;100688.02;124907;1099;102756;-74
2023/12/29 10:49:15;;;;;;;70.30;36.47;;;;;;;4.28;84.07;100682.50;124423;1098;104501;-73
2023/12/29 10:51:47;;;;;;;62.37;36.73;;;;;;;4.40;83.95;100671.11;124330;1099;104268;-74
2023/12/29 10:54:23;;;;;;;63.60;35.45;;;;;;;4.50;84.03;100671.78;124251;1099;104274;-73
2023/12/29 10:57:05;;;;;;;66.07;37.10;;;;;;;4.61;84.17;100666.34;123914;1099;104178;-75
2023/12/29 10:59:36;;;;;;;62.40;34.23;;;;;;;4.70;84.24;100672.11;123823;1099;118062;-73
2023/12/29 11:02:08;;;;;;;59.53;30.87;;;;;;;4.78;84.41;100663.07;123991;1099;104274;-74
2023/12/29 11:04:42;;;;;;;55.12;29.82;;;;;;;4.88;84.35;100661.04;124140;1099;104198;-73
2023/12/29 11:07:14;;;;;;;54.53;28.47;;;;;;;4.95;84.03;100661.51;123841;1099;102772;-74
2023/12/29 11:09:46;;;;;;;51.90;28.27;;;;;;;5.03;84.46;100656.77;124154;1099;102819;-74
2023/12/29 11:12:19;;;;;;;44.37;24.13;;;;;;;5.08;84.05;100634.56;124232;1100;104345;-74
2023/12/29 11:14:58;;;;;;;44.27;24.07;;;;;;;5.16;84.23;100625.50;124440;1099;104251;-74
2023/12/29 11:17:33;;;;;;;47.90;26.30;;;;;;;5.25;84.03;100625.16;124547;1098;104248;-73
2023/12/29 11:20:05;;;;;;;46.67;25.10;;;;;;;5.32;84.44;100619.48;124162;1099;109989;-74
2023/12/29 11:22:37;;;;;;;43.83;22.73;;;;;;;5.39;84.20;100621.66;123996;1099;102865;-74